EW6571 Weather Reports


Display with metric or nautical units.
time (UTC)temp
F
wind
direction
speed
MPH
gust
MPH
rain 1hr
in
rain 24hr
in
rain mn
in
humidity
%
barometer
mb
20240616150038 52 277 3.0 7.0 0.00 0.00 0.00 43 1005.0
20240616144534 52 257 4.0 7.0 0.00 0.00 0.00 43 1004.9
20240616143030 52 245 4.0 8.0 0.00 0.00 0.00 41 1004.8
20240616141535 52 268 2.0 7.0 0.00 0.00 0.00 44 1004.8
20240616140026 52 284 4.0 7.0 0.00 0.00 0.00 50 1004.7
20240616134523 51 103 1.0 4.0 0.00 0.00 0.00 54 1004.6
20240616133019 50 85 5.0 9.0 0.00 0.00 0.00 59 1004.6
20240616131517 46 251 1.0 4.0 0.00 0.00 0.00 62 1004.7
20240616130018 47 277 1.0 3.0 0.00 0.00 0.00 60 1004.6
20240616124515 48 277 3.0 7.0 0.00 0.00 0.00 53 1004.4
20240616123018 48 222 3.0 12.0 0.00 0.00 0.00 51 1004.3
20240616121515 48 190 2.0 11.0 0.00 0.00 0.00 49 1004.1
20240616120013 48 196 5.0 8.0 0.00 0.00 0.00 53 1004.1
20240616114519 45 197 2.0 4.0 0.00 0.00 0.00 61 1004.1
20240616113010 45 269 3.0 8.0 0.00 0.00 0.00 61 1004.3
20240616111509 46 124 2.0 7.0 0.00 0.00 0.00 55 1003.7
20240616110009 45 255 6.0 12.0 0.00 0.00 0.00 59 1004.4
20240616104509 44 229 3.0 5.0 0.00 0.01 0.00 62 1004.1
20240616103004 45 166 3.0 7.0 0.00 0.01 0.00 56 1004.1
20240616101504 45 176 2.0 5.0 0.00 0.01 0.00 59 1003.9
20240616100002 46 173 4.0 6.0 0.00 0.01 0.00 55 1003.7
20240616094501 44 213 3.0 5.0 0.00 0.02 0.00 61 1003.6
20240616093107 45 213 3.0 5.0 0.00 0.02 0.00 57 1003.8
20240616091602 45 213 4.0 6.0 0.00 0.02 0.00 60 1003.9
20240616090058 44 234 3.0 4.0 0.00 0.02 0.00 62 1004.1
20240616084557 45 233 3.0 5.0 0.00 0.02 0.00 58 1004.0
20240616083054 45 157 3.0 7.0 0.00 0.02 0.00 59 1003.9
20240616081551 43 231 0.0 5.0 0.00 0.02 0.00 60 1003.9
20240616080054 45 231 3.0 5.0 0.00 0.02 0.00 60 1003.6
20240616074544 45 203 3.0 5.0 0.00 0.02 0.00 62 1003.7
20240616073040 46 203 3.0 5.0 0.00 0.02 0.00 65 1003.8
20240616071538 46 203 3.0 5.0 0.00 0.02 0.00 67 1003.7
20240616070045 46 203 3.0 5.0 0.00 0.02 0.00 67 1003.6
20240616064537 47 203 2.0 6.0 0.00 0.02 0.00 69 1003.7
20240616063032 48 203 4.0 6.0 0.00 0.02 0.00 65 1003.2
20240616061529 48 236 3.0 5.0 0.00 0.02 0.00 64 1003.1
20240616060024 49 236 3.0 4.0 0.00 0.02 0.00 63 1003.0
20240616054521 50 236 2.0 7.0 0.00 0.02 0.02 61 1003.2
20240616053021 52 240 3.0 4.0 0.00 0.02 0.02 57 1003.2
20240616051529 53 248 3.0 8.0 0.00 0.02 0.02 54 1003.2
20240616050022 53 267 3.0 6.0 0.00 0.02 0.02 58 1003.1
20240616044512 53 267 2.0 4.0 0.00 0.02 0.02 60 1003.4
20240616043009 54 267 3.0 4.0 0.00 0.02 0.02 57 1003.2
20240616041520 54 267 2.0 4.0 0.00 0.02 0.02 56 1002.9
20240616040107 54 267 3.0 6.0 0.00 0.02 0.02 57 1002.5
20240616034504 56 270 4.0 9.0 0.00 0.02 0.02 53 1002.2
20240616033002 56 278 5.0 9.0 0.00 0.02 0.02 54 1002.0
20240616031604 56 277 1.0 3.0 0.00 0.02 0.02 57 1001.7
20240616030100 57 277 3.0 5.0 0.00 0.02 0.02 51 1001.5
20240616024557 59 275 6.0 12.0 0.00 0.02 0.02 48 1001.0
20240616023058 60 276 11.0 16.0 0.00 0.02 0.02 46 1000.9
20240616021608 60 265 11.0 17.0 0.00 0.02 0.02 47 1000.9
20240616020111 61 273 8.0 13.0 0.00 0.02 0.02 47 1000.7
20240616014600 62 290 6.0 13.0 0.00 0.02 0.02 49 1000.4
20240616013059 63 299 12.0 16.0 0.00 0.02 0.02 46 1000.0
20240616011556 64 273 11.0 18.0 0.00 0.02 0.02 45 999.7
20240616010052 65 314 11.0 17.0 0.00 0.02 0.02 45 999.3
20240616004555 66 289 10.0 17.0 0.00 0.02 0.02 43 999.2
20240616003051 67 297 10.0 17.0 0.00 0.02 0.02 41 998.8
20240616001551 69 301 7.0 12.0 0.00 0.02 0.02 42 998.7
20240616000051 69 303 9.0 15.0 0.00 0.02 0.02 40 998.4
20240615234551 71 277 12.0 17.0 0.00 0.02 0.02 38 998.6
20240615233050 71 300 9.0 15.0 0.00 0.02 0.02 36 998.4
20240615231548 71 286 11.0 15.0 0.00 0.02 0.02 38 998.3
20240615230054 71 278 6.0 12.0 0.00 0.02 0.02 36 998.4
20240615224547 72 263 11.0 17.0 0.00 0.02 0.02 37 998.4
20240615223046 71 284 7.0 13.0 0.00 0.02 0.02 40 998.2
20240615221545 72 311 7.0 17.0 0.00 0.02 0.02 39 998.3
20240615220045 72 283 13.0 19.0 0.00 0.02 0.02 36 998.5
20240615214546 72 303 11.0 19.0 0.00 0.02 0.02 36 998.6
20240615213050 72 278 13.0 18.0 0.00 0.02 0.02 35 998.7
20240615211604 73 246 13.0 18.0 0.00 0.02 0.02 35 998.3
20240615210044 70 290 6.0 14.0 0.00 0.02 0.02 38 998.3
20240615204541 71 257 13.0 19.0 0.00 0.02 0.02 35 998.4
20240615203048 73 286 10.0 15.0 0.00 0.02 0.02 35 998.6
20240615201542 72 293 13.0 21.0 0.00 0.02 0.02 34 998.6
20240615200043 72 273 15.0 19.0 0.00 0.02 0.02 33 998.7
20240615194540 72 265 11.0 16.0 0.00 0.02 0.02 33 998.8
20240615193039 72 232 8.0 18.0 0.00 0.02 0.02 31 999.1
20240615191542 72 275 14.0 21.0 0.00 0.02 0.02 33 999.0
20240615190036 72 261 8.0 16.0 0.00 0.02 0.02 35 999.2
20240615184537 72 287 9.0 17.0 0.00 0.02 0.02 33 999.0
20240615183037 71 250 14.0 20.0 0.00 0.02 0.02 33 999.1
20240615181541 71 277 12.0 18.0 0.00 0.02 0.02 35 998.9
20240615180039 71 235 7.0 18.0 0.00 0.02 0.02 36 999.1
20240615174530 71 271 13.0 19.0 0.00 0.02 0.02 37 999.0
20240615173035 70 271 6.0 14.0 0.00 0.02 0.02 37 998.9
20240615171526 70 278 10.0 25.0 0.00 0.02 0.02 39 998.8
20240615170023 69 329 1.0 4.0 0.00 0.02 0.02 46 999.1
20240615164519 67 355 1.0 4.0 0.00 0.02 0.02 46 999.2
20240615163017 67 90 2.0 6.0 0.00 0.02 0.02 48 999.2
20240615161514 66 84 3.0 6.0 0.00 0.02 0.02 50 999.4
20240615160009 63 111 1.0 6.0 0.00 0.02 0.02 58 999.5
20240615154515 60 84 4.0 8.0 0.00 0.02 0.02 71 999.8
20240615153003 59 274 0.0 3.0 0.00 0.02 0.02 69 1000.2
20240615151504 58 274 1.0 7.0 0.00 0.02 0.02 69 1000.1